createdAt,value
2023-01-19T00:01:48.775Z,47.90
2023-01-19T00:04:19.194Z,43.40
2023-01-19T00:06:48.691Z,47.38
2023-01-19T00:09:16.731Z,42.70
2023-01-19T00:11:44.806Z,45.95
2023-01-19T00:14:12.901Z,42.10
2023-01-19T00:16:41.048Z,42.28
2023-01-19T00:19:10.450Z,47.03
2023-01-19T00:21:40.569Z,47.47
2023-01-19T00:24:11.210Z,51.05
2023-01-19T00:26:40.392Z,46.28
2023-01-19T00:29:08.829Z,54.05
2023-01-19T00:31:37.299Z,43.80
2023-01-19T00:34:06.240Z,43.50
2023-01-19T00:36:36.435Z,46.03
2023-01-19T00:39:04.728Z,47.10
2023-01-19T00:41:51.663Z,45.33
2023-01-19T00:44:19.928Z,44.78
2023-01-19T00:46:48.078Z,46.67
2023-01-19T00:49:16.272Z,52.67
2023-01-19T00:51:44.460Z,48.95
2023-01-19T00:54:12.635Z,49.03
2023-01-19T00:56:42.126Z,44.03
2023-01-19T00:59:11.725Z,49.70
2023-01-19T05:03:28.000Z,55.58
2023-01-19T05:05:57.567Z,50.03
2023-01-19T05:08:25.664Z,52.42
2023-01-19T05:10:53.819Z,56.60
2023-01-19T05:13:21.974Z,53.67
2023-01-19T05:15:50.343Z,53.88
2023-01-19T05:18:20.422Z,50.42
2023-01-19T05:20:48.523Z,51.95
2023-01-19T05:23:18.016Z,57.88
2023-01-19T05:25:46.127Z,50.83
2023-01-19T05:28:15.259Z,50.65
2023-01-19T05:30:43.498Z,55.03
2023-01-19T05:33:11.594Z,54.47
2023-01-19T05:35:39.646Z,55.88
2023-01-19T05:38:07.792Z,53.92
2023-01-19T05:40:37.265Z,51.80
2023-01-19T05:43:05.599Z,48.08
2023-01-19T05:45:34.238Z,54.70
2023-01-19T05:48:02.604Z,52.97
2023-01-19T05:50:30.750Z,52.13
2023-01-19T05:53:00.094Z,53.83
2023-01-19T05:55:28.852Z,52.83
2023-01-19T05:58:01.383Z,60.20
2023-01-19T06:00:32.092Z,52.92
2023-01-19T06:03:00.835Z,48.05
2023-01-19T06:05:29.157Z,61.10
2023-01-19T06:07:57.807Z,55.38
2023-01-19T06:10:25.878Z,56.72
2023-01-19T06:12:54.037Z,51.35
2023-01-19T06:15:23.686Z,56.00
2023-01-19T06:17:51.864Z,57.80
2023-01-19T06:20:20.307Z,54.80
2023-01-19T06:22:50.797Z,55.78
2023-01-19T06:25:18.905Z,51.78
2023-01-19T06:27:47.024Z,53.85
2023-01-19T06:30:15.744Z,52.03
2023-01-19T06:32:45.318Z,48.03
2023-01-19T06:35:13.520Z,46.45
2023-01-19T06:37:41.869Z,52.40
2023-01-19T06:40:13.597Z,52.72
2023-01-19T06:42:42.736Z,52.20
2023-01-19T06:45:11.772Z,50.85
2023-01-19T06:47:40.242Z,61.75
2023-01-19T06:50:11.207Z,52.15
2023-01-19T06:52:42.670Z,50.40
2023-01-19T06:55:11.953Z,56.05
2023-01-19T06:57:40.164Z,50.35
2023-01-19T07:00:10.090Z,52.15
2023-01-19T07:02:40.155Z,55.03
2023-01-19T07:05:10.531Z,50.63
2023-01-19T07:07:39.701Z,47.28
2023-01-19T07:10:09.253Z,50.75
2023-01-19T07:12:37.370Z,50.08
2023-01-19T07:15:06.657Z,51.92
2023-01-19T07:17:34.782Z,51.95
2023-01-19T07:20:03.069Z,46.55
2023-01-19T07:22:32.536Z,44.47
2023-01-19T07:25:01.583Z,41.70
2023-01-19T07:27:29.667Z,52.83
2023-01-19T07:29:57.851Z,46.88
2023-01-19T07:32:26.036Z,45.67
2023-01-19T07:34:54.308Z,46.40
2023-01-19T07:37:22.827Z,51.00
2023-01-19T07:39:52.332Z,52.97
2023-01-19T07:42:20.465Z,46.08
2023-01-19T07:44:48.573Z,44.72
2023-01-19T07:47:16.822Z,47.72
2023-01-19T07:49:44.953Z,48.85
2023-01-19T07:52:13.056Z,42.78
2023-01-19T07:54:43.507Z,45.20
2023-01-19T07:57:13.130Z,45.22
2023-01-19T07:59:41.278Z,42.72
2023-01-19T08:02:11.206Z,39.03
2023-01-19T08:04:39.513Z,39.28
2023-01-19T08:07:09.423Z,39.78
2023-01-19T08:09:37.444Z,38.45
2023-01-19T08:12:06.087Z,37.20
2023-01-19T08:14:35.528Z,43.30
2023-01-19T08:17:04.215Z,39.58
2023-01-19T08:19:32.727Z,43.80
2023-01-19T08:22:01.058Z,40.88
2023-01-19T08:24:29.455Z,34.42
2023-01-19T08:27:03.293Z,32.72
2023-01-19T08:29:32.306Z,35.72
2023-01-19T08:32:03.128Z,33.72
2023-01-19T08:34:31.938Z,35.90
2023-01-19T08:37:03.351Z,36.50
2023-01-19T08:39:36.264Z,34.65
2023-01-19T08:42:05.024Z,37.45
2023-01-19T08:44:36.623Z,35.35
2023-01-19T08:47:09.262Z,32.63
2023-01-19T08:49:41.152Z,34.25
2023-01-19T08:52:12.836Z,34.60
2023-01-19T08:54:43.333Z,31.73
2023-01-19T08:57:11.412Z,35.97
2023-01-19T08:59:39.479Z,32.42
2023-01-19T09:02:12.796Z,36.33
2023-01-19T09:04:41.108Z,32.75
2023-01-19T09:07:09.169Z,32.15
2023-01-19T09:09:41.758Z,31.40
2023-01-19T09:14:38.415Z,29.58
2023-01-19T09:17:08.027Z,32.35
2023-01-19T09:19:36.226Z,33.80
2023-01-19T09:22:04.317Z,32.58
2023-01-19T09:24:33.037Z,30.00
2023-01-19T09:27:05.686Z,26.55
2023-01-19T09:32:02.246Z,28.52
2023-01-19T09:34:31.841Z,24.77
2023-01-19T09:36:59.906Z,27.08
2023-01-19T09:39:28.034Z,25.75
2023-01-19T09:42:08.445Z,25.75
2023-01-19T09:44:37.278Z,30.58
2023-01-19T09:47:15.576Z,30.50
2023-01-19T09:49:49.910Z,31.58
2023-01-19T09:52:22.412Z,30.25
2023-01-19T09:54:56.122Z,31.52
2023-01-19T09:57:27.189Z,33.38
2023-01-19T09:59:59.574Z,38.92
2023-01-19T15:03:50.455Z,41.13
2023-01-19T15:06:21.747Z,39.85
2023-01-19T15:08:50.240Z,40.92
2023-01-19T15:11:23.514Z,42.72
2023-01-19T15:13:52.390Z,42.05
2023-01-19T15:16:21.030Z,41.05
2023-01-19T15:18:52.988Z,42.80
2023-01-19T15:21:23.781Z,44.40
2023-01-19T15:23:52.099Z,45.80
2023-01-19T15:26:22.365Z,42.13
2023-01-19T15:28:51.324Z,41.03
2023-01-19T15:31:21.268Z,51.95
2023-01-19T15:33:49.484Z,43.15
2023-01-19T15:36:20.918Z,46.97
2023-01-19T15:38:50.787Z,42.72
2023-01-19T15:41:25.985Z,44.45
2023-01-19T15:43:54.419Z,41.60
2023-01-19T15:46:23.731Z,43.45
2023-01-19T15:48:52.333Z,42.22
2023-01-19T15:51:25.102Z,45.30
2023-01-19T15:56:26.488Z,45.47
2023-01-19T15:58:55.622Z,43.72
2023-01-19T16:01:31.144Z,37.90
2023-01-19T16:04:01.519Z,46.75
2023-01-19T16:06:32.402Z,41.40
2023-01-19T16:09:01.353Z,38.85
2023-01-19T16:11:31.998Z,42.67
2023-01-19T16:14:00.685Z,45.55
2023-01-19T16:16:29.295Z,42.03
2023-01-19T16:18:58.249Z,39.88
2023-01-19T16:21:26.557Z,39.28
2023-01-19T16:23:56.590Z,41.42
2023-01-19T16:26:27.771Z,38.75
2023-01-19T16:28:59.170Z,40.75
2023-01-19T16:31:27.852Z,42.72
2023-01-19T16:33:56.153Z,45.08
2023-01-19T16:36:28.818Z,41.75
2023-01-19T16:39:02.501Z,43.47
2023-01-19T16:41:31.164Z,45.35
2023-01-19T16:44:00.407Z,42.85
2023-01-19T16:46:30.491Z,45.10
2023-01-19T16:49:01.419Z,40.38
2023-01-19T16:51:30.267Z,40.95
2023-01-19T16:54:00.140Z,37.55
2023-01-19T16:56:28.792Z,48.17
2023-01-19T16:58:57.743Z,45.60
2023-01-19T17:01:27.842Z,49.00
2023-01-19T17:03:57.242Z,43.10
2023-01-19T17:06:26.771Z,45.22
2023-01-19T17:08:55.023Z,44.00
2023-01-19T17:11:27.748Z,39.40
2023-01-19T17:16:25.965Z,41.55
2023-01-19T17:18:54.419Z,42.05
2023-01-19T17:21:22.770Z,41.47
2023-01-19T17:23:53.458Z,46.28
2023-01-19T17:28:58.593Z,47.15
2023-01-19T17:31:26.786Z,43.40
2023-01-19T17:33:55.141Z,37.92
2023-01-19T17:36:25.523Z,41.30
2023-01-19T17:38:55.953Z,39.75
2023-01-19T17:41:26.749Z,39.97
2023-01-19T17:43:55.694Z,36.30
2023-01-19T17:46:26.405Z,39.17
2023-01-19T17:48:55.220Z,38.15
2023-01-19T17:51:25.931Z,36.85
2023-01-19T17:53:55.455Z,37.08
2023-01-19T17:56:29.415Z,37.17
2023-01-19T17:58:57.967Z,46.22
2023-01-19T18:01:28.536Z,43.63
2023-01-19T18:03:57.159Z,45.28
2023-01-19T18:06:25.505Z,41.63
2023-01-19T18:08:54.073Z,42.58
2023-01-19T18:11:22.890Z,42.50
2023-01-19T18:13:53.012Z,40.92
2023-01-19T18:16:25.675Z,43.00
2023-01-19T18:18:57.741Z,41.55
2023-01-19T18:21:28.169Z,40.30
2023-01-19T18:24:01.571Z,48.95
2023-01-19T18:26:30.408Z,41.08
2023-01-19T18:29:00.576Z,40.47
2023-01-19T18:31:29.559Z,40.58
2023-01-19T18:33:57.850Z,47.22
2023-01-19T18:36:26.056Z,46.22
2023-01-19T18:38:54.476Z,47.05
2023-01-19T18:41:23.011Z,36.08
2023-01-19T18:43:51.966Z,38.35
2023-01-19T18:46:22.305Z,37.72
2023-01-19T18:48:50.968Z,39.30
2023-01-19T18:51:19.484Z,36.72
2023-01-19T18:53:49.739Z,42.22
2023-01-19T18:56:18.008Z,43.40
2023-01-19T18:58:46.444Z,38.60
2023-01-19T19:01:25.014Z,39.13
2023-01-19T19:03:53.894Z,43.53
2023-01-19T19:06:22.859Z,43.47
2023-01-19T19:08:52.357Z,47.10
2023-01-19T19:11:22.361Z,37.63
2023-01-19T19:13:53.225Z,38.65
2023-01-19T19:16:23.018Z,51.78
2023-01-19T19:18:51.513Z,37.95
2023-01-19T19:21:24.018Z,41.15
2023-01-19T19:23:53.296Z,131.32
2023-01-19T19:26:21.569Z,138.27
2023-01-19T19:28:49.703Z,85.63
2023-01-19T19:31:20.548Z,110.05
2023-01-19T19:33:51.016Z,84.45
2023-01-19T19:36:20.499Z,58.25
2023-01-19T19:38:48.895Z,58.38
2023-01-19T19:41:19.076Z,51.30
2023-01-19T19:46:20.145Z,105.57
2023-01-19T19:48:50.525Z,90.60
2023-01-19T19:51:22.500Z,68.93
2023-01-19T19:53:51.823Z,122.68
2023-01-19T19:56:21.958Z,47.50
2023-01-19T19:58:51.076Z,86.38
2023-01-19T20:01:21.238Z,46.83
2023-01-19T20:03:51.085Z,43.55
2023-01-19T20:06:21.344Z,44.53
2023-01-19T20:08:50.335Z,41.78
2023-01-19T20:11:20.411Z,48.03
2023-01-19T20:13:49.299Z,42.08
2023-01-19T20:16:19.613Z,41.33
2023-01-19T20:18:53.903Z,41.85
2023-01-19T20:21:24.843Z,52.05
2023-01-19T20:23:53.685Z,38.72
2023-01-19T20:26:25.015Z,41.90
2023-01-19T20:28:59.675Z,44.10
2023-01-19T20:31:30.738Z,35.15
2023-01-19T20:34:02.449Z,41.03
2023-01-19T20:36:30.874Z,39.92
2023-01-19T20:38:59.810Z,40.97
2023-01-19T20:41:28.505Z,39.85
2023-01-19T20:43:56.674Z,39.25
2023-01-19T20:46:24.870Z,43.63
2023-01-19T20:48:54.615Z,40.00
2023-01-19T20:51:25.720Z,41.03
2023-01-19T20:53:54.223Z,45.67
2023-01-19T20:56:22.506Z,49.63
2023-01-19T20:58:50.598Z,42.55
2023-01-19T21:01:22.179Z,41.13
2023-01-19T21:03:50.948Z,41.28
2023-01-19T21:06:20.205Z,38.00
2023-01-19T21:08:50.662Z,37.72
2023-01-19T21:11:20.863Z,48.67
2023-01-19T21:13:55.699Z,187.50
2023-01-19T21:18:53.222Z,124.28
2023-01-19T21:21:30.295Z,73.88
2023-01-19T21:24:01.974Z,53.95
2023-01-19T21:26:30.863Z,33.10
2023-01-19T21:28:59.771Z,50.25
2023-01-19T21:31:28.875Z,41.58
2023-01-19T21:33:58.073Z,56.90
2023-01-19T21:36:26.712Z,50.47
2023-01-19T21:39:00.358Z,53.38
2023-01-19T21:41:30.952Z,113.47
2023-01-19T21:44:00.981Z,95.63
2023-01-19T21:46:30.443Z,76.65
2023-01-19T21:48:59.432Z,50.72
2023-01-19T21:51:28.534Z,100.32
2023-01-19T21:54:00.143Z,77.05
2023-01-19T21:56:30.580Z,51.22
2023-01-19T21:59:02.075Z,64.57
2023-01-19T22:01:30.830Z,33.17
2023-01-19T22:03:59.668Z,48.80
2023-01-19T22:06:28.541Z,36.75
2023-01-19T22:08:58.331Z,40.03
2023-01-19T22:11:31.054Z,33.25
2023-01-19T22:13:59.688Z,35.72
2023-01-19T22:16:28.203Z,31.55
2023-01-19T22:18:59.486Z,31.92
2023-01-19T22:21:35.001Z,35.80
2023-01-19T22:24:05.077Z,31.65
2023-01-19T22:26:36.827Z,41.22
2023-01-19T22:29:06.702Z,35.53
2023-01-19T22:31:37.047Z,34.27
2023-01-19T22:34:09.891Z,31.20
2023-01-19T22:39:08.413Z,41.25
2023-01-19T22:41:39.396Z,40.25
2023-01-19T22:44:09.508Z,39.65
2023-01-19T22:46:38.489Z,41.70
2023-01-19T22:49:08.377Z,43.45
2023-01-19T22:51:37.060Z,45.45
2023-01-19T22:54:07.612Z,36.05
2023-01-19T22:56:39.347Z,37.50
2023-01-19T22:59:08.723Z,42.55
2023-01-19T23:01:38.620Z,39.03
2023-01-19T23:04:08.267Z,46.50
2023-01-19T23:06:37.563Z,35.38
2023-01-19T23:09:08.199Z,39.10
2023-01-19T23:11:39.675Z,38.88
2023-01-19T23:14:11.473Z,37.72
2023-01-19T23:16:39.586Z,36.97
2023-01-19T23:19:07.913Z,40.13
2023-01-19T23:21:36.924Z,41.28
2023-01-19T23:24:06.597Z,35.20
2023-01-19T23:26:38.175Z,37.72
2023-01-19T23:29:11.077Z,44.53
2023-01-19T23:34:10.282Z,38.75
2023-01-19T23:36:40.171Z,46.53
2023-01-19T23:39:13.083Z,50.03
2023-01-19T23:41:41.229Z,48.83
2023-01-19T23:44:11.769Z,46.88
2023-01-19T23:46:39.927Z,48.47
2023-01-19T23:49:08.047Z,45.42
2023-01-19T23:51:36.329Z,48.30
2023-01-19T23:54:04.862Z,52.50
2023-01-19T23:56:34.811Z,43.05
2023-01-19T23:59:04.839Z,45.15
